createdAt,value
2022-09-30T00:00:28.146Z,4.30
2022-09-30T00:04:29.791Z,4.20
2022-09-30T00:08:31.455Z,4.10
2022-09-30T00:12:40.976Z,4.10
2022-09-30T00:16:50.632Z,4.10
2022-09-30T00:25:00.066Z,4.10
2022-09-30T00:29:02.474Z,4.10
2022-09-30T00:33:04.150Z,4.10
2022-09-30T00:37:05.990Z,4.00
2022-09-30T00:41:07.601Z,4.00
2022-09-30T00:45:11.406Z,4.00
2022-09-30T00:49:22.209Z,4.00
2022-09-30T00:53:34.326Z,4.00
2022-09-30T00:57:37.157Z,3.90
2022-09-30T01:01:40.772Z,3.90
2022-09-30T01:05:42.733Z,3.80
2022-09-30T01:09:45.083Z,3.80
2022-09-30T01:13:50.521Z,3.80
2022-09-30T01:18:07.166Z,3.80
2022-09-30T01:22:17.742Z,3.80
2022-09-30T01:26:25.174Z,3.80
2022-09-30T01:30:57.678Z,3.70
2022-09-30T01:35:04.840Z,3.70
2022-09-30T01:39:48.744Z,3.70
2022-09-30T01:44:08.321Z,3.70
2022-09-30T01:53:06.423Z,3.60
2022-09-30T01:57:21.459Z,3.60
2022-09-30T02:01:53.046Z,3.50
2022-09-30T02:06:02.132Z,3.50
2022-09-30T02:10:15.885Z,3.50
2022-09-30T02:14:23.890Z,3.40
2022-09-30T02:18:40.227Z,3.40
2022-09-30T02:22:51.822Z,3.50
2022-09-30T02:26:58.282Z,3.50
2022-09-30T02:31:03.708Z,3.40
2022-09-30T02:35:11.619Z,3.40
2022-09-30T02:39:40.825Z,3.40
2022-09-30T02:43:42.795Z,3.30
2022-09-30T02:47:55.906Z,3.30
2022-09-30T02:52:28.827Z,3.30
2022-09-30T02:56:48.530Z,3.30
2022-09-30T03:00:50.595Z,3.20
2022-09-30T03:04:52.281Z,3.20
2022-09-30T03:08:54.288Z,3.30
2022-09-30T03:12:55.882Z,3.20
2022-09-30T03:17:25.563Z,3.20
2022-09-30T03:21:44.353Z,3.10
2022-09-30T03:25:48.887Z,3.20
2022-09-30T03:30:07.786Z,3.20
2022-09-30T03:34:17.957Z,3.20
2022-09-30T03:38:46.635Z,3.20
2022-09-30T03:42:57.251Z,3.20
2022-09-30T03:47:07.915Z,3.20
2022-09-30T03:51:09.851Z,3.20
2022-09-30T03:55:11.751Z,3.20
2022-09-30T03:59:24.113Z,3.20
2022-09-30T04:03:27.705Z,3.20
2022-09-30T04:07:29.363Z,3.10
2022-09-30T04:11:31.115Z,3.10
2022-09-30T04:15:32.818Z,3.10
2022-09-30T04:19:38.126Z,3.10
2022-09-30T04:23:41.380Z,3.20
2022-09-30T04:27:43.015Z,3.20
2022-09-30T04:31:44.734Z,3.30
2022-09-30T04:35:46.465Z,3.20
2022-09-30T04:39:48.094Z,3.20
2022-09-30T04:43:49.705Z,3.20
2022-09-30T04:47:51.325Z,3.20
2022-09-30T04:51:52.986Z,3.30
2022-09-30T04:56:02.055Z,3.30
2022-09-30T05:00:05.328Z,3.20
2022-09-30T05:04:08.097Z,3.30
2022-09-30T05:08:09.769Z,3.30
2022-09-30T05:12:11.406Z,3.30
2022-09-30T05:16:14.658Z,3.40
2022-09-30T05:20:20.832Z,3.30
2022-09-30T05:24:22.875Z,3.40
2022-09-30T05:28:25.790Z,3.30
2022-09-30T05:32:27.410Z,3.30
2022-09-30T05:36:29.039Z,3.40
2022-09-30T05:40:31.435Z,3.40
2022-09-30T05:44:33.041Z,3.40
2022-09-30T05:48:35.117Z,3.40
2022-09-30T05:52:36.743Z,3.40
2022-09-30T05:56:38.447Z,3.40
2022-09-30T06:00:44.725Z,3.40
2022-09-30T06:04:46.576Z,3.40
2022-09-30T06:08:48.448Z,3.50
2022-09-30T06:12:50.104Z,3.60
2022-09-30T06:16:51.882Z,3.60
2022-09-30T06:20:56.835Z,3.70
2022-09-30T06:24:58.574Z,3.70
2022-09-30T06:29:00.162Z,3.80
2022-09-30T06:33:01.871Z,3.90
2022-09-30T06:37:04.006Z,4.00
2022-09-30T06:41:06.214Z,4.10
2022-09-30T06:45:09.067Z,4.30
2022-09-30T06:49:13.760Z,4.40
2022-09-30T06:53:15.733Z,4.70
2022-09-30T06:57:17.640Z,4.90
2022-09-30T07:01:20.646Z,5.20
2022-09-30T07:05:23.265Z,5.40
2022-09-30T07:09:25.583Z,5.60
2022-09-30T07:13:27.553Z,5.80
2022-09-30T07:17:29.610Z,6.10
2022-09-30T07:21:31.737Z,6.20
2022-09-30T07:25:33.366Z,6.40
2022-09-30T07:29:50.410Z,6.50
2022-09-30T07:33:56.657Z,6.70
2022-09-30T07:37:58.412Z,6.80
2022-09-30T07:42:04.104Z,7.00
2022-09-30T07:46:12.775Z,7.10
2022-09-30T07:50:15.712Z,7.20
2022-09-30T07:54:20.945Z,7.30
2022-09-30T07:58:22.559Z,7.40
2022-09-30T08:02:24.612Z,7.50
2022-09-30T08:06:28.211Z,7.60
2022-09-30T08:10:34.145Z,7.70
2022-09-30T08:14:35.765Z,7.90
2022-09-30T08:18:37.408Z,8.00
2022-09-30T08:22:39.069Z,8.10
2022-09-30T08:26:41.154Z,8.30
2022-09-30T08:30:42.830Z,8.50
2022-09-30T08:34:44.438Z,8.70
2022-09-30T08:38:46.307Z,8.90
2022-09-30T08:43:17.502Z,9.20
2022-09-30T08:47:38.946Z,9.40
2022-09-30T08:51:47.115Z,9.60
2022-09-30T08:55:49.054Z,9.80
2022-09-30T08:59:57.605Z,10.00
2022-09-30T09:04:01.833Z,10.20
2022-09-30T09:08:23.866Z,10.70
2022-09-30T09:12:44.353Z,11.30
2022-09-30T09:17:14.597Z,12.10
2022-09-30T09:21:29.899Z,12.40
2022-09-30T09:25:32.125Z,12.30
2022-09-30T09:29:57.670Z,12.50
2022-09-30T09:34:07.868Z,13.30
2022-09-30T09:38:39.058Z,14.10
2022-09-30T09:42:43.697Z,15.20
2022-09-30T09:46:55.483Z,16.40
2022-09-30T09:51:03.263Z,17.50
2022-09-30T09:55:05.263Z,18.60
2022-09-30T09:59:19.848Z,19.10
2022-09-30T10:03:26.408Z,20.10
2022-09-30T10:07:29.854Z,19.70
2022-09-30T10:11:31.497Z,19.30
2022-09-30T10:15:36.303Z,19.00
2022-09-30T10:19:50.365Z,18.90
2022-09-30T10:23:52.143Z,18.30
2022-09-30T10:27:58.413Z,17.60
2022-09-30T10:32:07.340Z,17.10
2022-09-30T10:36:18.346Z,16.60
2022-09-30T10:40:27.100Z,16.10
2022-09-30T10:44:29.628Z,15.90
2022-09-30T10:48:37.143Z,15.40
2022-09-30T10:52:55.419Z,15.10
2022-09-30T10:57:03.774Z,14.90
2022-09-30T11:01:21.778Z,14.80
2022-09-30T11:05:34.828Z,14.60
2022-09-30T11:09:47.655Z,14.60
2022-09-30T11:13:57.257Z,14.60
2022-09-30T11:18:18.737Z,14.80
2022-09-30T11:22:46.737Z,14.80
2022-09-30T11:26:56.746Z,14.80
2022-09-30T11:30:58.279Z,15.00
2022-09-30T11:35:21.663Z,15.20
2022-09-30T11:39:41.101Z,15.30
2022-09-30T11:44:14.543Z,15.50
2022-09-30T11:48:32.991Z,15.60
2022-09-30T11:53:12.058Z,15.90
2022-09-30T11:57:32.770Z,15.90
2022-09-30T12:01:40.664Z,16.00
2022-09-30T12:05:48.029Z,16.10
2022-09-30T12:09:58.737Z,16.30
2022-09-30T12:14:07.143Z,16.10
2022-09-30T12:18:22.322Z,16.00
2022-09-30T12:22:30.091Z,15.70
2022-09-30T12:26:32.302Z,15.60
2022-09-30T12:30:35.512Z,15.80
2022-09-30T12:35:04.617Z,15.90
2022-09-30T12:39:37.222Z,16.10
2022-09-30T12:43:41.914Z,15.90
2022-09-30T12:47:54.676Z,15.90
2022-09-30T12:52:07.030Z,16.40
2022-09-30T12:56:15.623Z,16.60
2022-09-30T13:00:27.365Z,16.70
2022-09-30T13:04:38.978Z,16.50
2022-09-30T13:08:47.859Z,16.40
2022-09-30T13:13:25.300Z,16.10
2022-09-30T13:17:27.208Z,16.20
2022-09-30T13:21:32.118Z,16.30
2022-09-30T13:25:53.500Z,16.30
2022-09-30T13:29:55.491Z,16.80
2022-09-30T13:34:06.331Z,17.20
2022-09-30T13:38:17.749Z,17.20
2022-09-30T13:42:19.331Z,17.10
2022-09-30T13:46:24.676Z,16.70
2022-09-30T13:50:45.306Z,16.50
2022-09-30T13:54:48.794Z,16.40
2022-09-30T13:59:00.212Z,16.20
2022-09-30T14:03:38.524Z,16.20
2022-09-30T14:08:03.397Z,16.40
2022-09-30T14:12:25.184Z,16.80
2022-09-30T14:16:51.488Z,17.10
2022-09-30T14:21:05.102Z,17.40
2022-09-30T14:25:22.331Z,17.10
2022-09-30T14:29:36.368Z,17.10
2022-09-30T14:33:39.404Z,17.00
2022-09-30T14:37:56.211Z,17.00
2022-09-30T14:42:02.022Z,16.90
2022-09-30T14:46:08.537Z,17.00
2022-09-30T14:50:16.142Z,17.00
2022-09-30T14:54:20.782Z,16.90
2022-09-30T14:58:53.067Z,17.00
2022-09-30T15:02:55.103Z,16.90
2022-09-30T15:06:57.794Z,16.70
2022-09-30T15:10:59.454Z,16.80
2022-09-30T15:15:01.542Z,16.70
2022-09-30T15:19:03.186Z,16.60
2022-09-30T15:23:14.987Z,16.50
2022-09-30T15:27:22.404Z,16.30
2022-09-30T15:31:28.334Z,16.30
2022-09-30T15:35:30.630Z,16.30
2022-09-30T15:40:05.649Z,16.20
2022-09-30T15:44:37.093Z,16.20
2022-09-30T15:48:44.608Z,16.20
2022-09-30T15:52:47.026Z,16.10
2022-09-30T15:56:48.810Z,16.00
2022-09-30T16:00:52.606Z,15.90
2022-09-30T16:04:54.557Z,15.70
2022-09-30T16:09:01.262Z,15.60
2022-09-30T16:13:04.892Z,15.50
2022-09-30T16:17:07.489Z,15.30
2022-09-30T16:21:43.897Z,15.20
2022-09-30T16:25:46.485Z,15.10
2022-09-30T16:29:48.118Z,15.00
2022-09-30T16:33:49.838Z,15.00
2022-09-30T16:37:59.008Z,14.80
2022-09-30T16:42:00.654Z,14.60
2022-09-30T16:46:02.827Z,14.60
2022-09-30T16:50:20.916Z,14.50
2022-09-30T16:54:22.752Z,14.40
2022-09-30T16:58:24.460Z,14.20
2022-09-30T17:02:27.301Z,14.00
2022-09-30T17:06:30.990Z,13.90
2022-09-30T17:10:35.404Z,13.70
2022-09-30T17:14:37.191Z,13.50
2022-09-30T17:18:38.815Z,13.40
2022-09-30T17:22:40.867Z,13.10
2022-09-30T17:26:43.131Z,13.00
2022-09-30T17:30:47.782Z,12.90
2022-09-30T17:34:50.031Z,12.80
2022-09-30T17:38:54.541Z,12.60
2022-09-30T17:43:10.344Z,12.40
2022-09-30T17:47:11.982Z,12.20
2022-09-30T17:51:18.080Z,12.10
2022-09-30T17:55:20.062Z,11.90
2022-09-30T17:59:21.904Z,11.80
2022-09-30T18:03:23.653Z,11.60
2022-09-30T18:07:27.534Z,11.50
2022-09-30T18:11:31.279Z,11.40
2022-09-30T18:15:33.207Z,11.40
2022-09-30T18:19:35.591Z,11.30
2022-09-30T18:23:37.307Z,11.20
2022-09-30T18:27:38.961Z,11.20
2022-09-30T18:31:40.775Z,11.10
2022-09-30T18:35:42.432Z,11.00
2022-09-30T18:39:44.056Z,10.90
2022-09-30T18:43:46.151Z,10.90
2022-09-30T18:47:48.150Z,10.80
2022-09-30T18:51:49.803Z,10.70
2022-09-30T18:55:51.435Z,10.70
2022-09-30T18:59:53.597Z,10.70
2022-09-30T19:03:55.202Z,10.60
2022-09-30T19:07:56.859Z,10.70
2022-09-30T19:11:59.912Z,10.60
2022-09-30T19:16:05.666Z,10.60
2022-09-30T19:20:08.361Z,10.50
2022-09-30T19:24:10.002Z,10.50
2022-09-30T19:28:12.218Z,10.50
2022-09-30T19:32:15.223Z,10.40
2022-09-30T19:36:17.195Z,10.50
2022-09-30T19:40:22.055Z,10.40
2022-09-30T19:44:23.891Z,10.50
2022-09-30T19:48:26.611Z,10.50
2022-09-30T19:52:28.315Z,10.60
2022-09-30T19:56:30.013Z,10.60
2022-09-30T20:00:31.654Z,10.60
2022-09-30T20:04:34.169Z,10.70
2022-09-30T20:08:36.836Z,10.70
2022-09-30T20:12:38.433Z,10.80
2022-09-30T20:16:43.605Z,10.90
2022-09-30T20:20:45.732Z,10.90
2022-09-30T20:24:47.892Z,10.80
2022-09-30T20:28:49.500Z,10.90
2022-09-30T20:32:51.050Z,11.00
2022-09-30T20:36:52.642Z,11.00
2022-09-30T20:40:56.079Z,11.10
2022-09-30T20:45:00.918Z,11.10
2022-09-30T20:49:03.052Z,11.20
2022-09-30T20:53:10.148Z,11.30
2022-09-30T20:57:11.787Z,11.20
2022-09-30T21:01:15.496Z,11.50
2022-09-30T21:05:17.103Z,11.50
2022-09-30T21:09:18.712Z,11.70
2022-09-30T21:13:20.565Z,11.60
2022-09-30T21:17:22.164Z,11.60
2022-09-30T21:21:25.611Z,11.50
2022-09-30T21:25:27.226Z,11.60
2022-09-30T21:29:32.617Z,11.60
2022-09-30T21:33:35.490Z,11.50
2022-09-30T21:37:37.281Z,11.40
2022-09-30T21:41:40.607Z,11.50
2022-09-30T21:45:42.388Z,11.50
2022-09-30T21:49:44.150Z,11.50
2022-09-30T21:53:46.724Z,11.60
2022-09-30T21:57:48.348Z,11.70
2022-09-30T22:01:50.194Z,11.70
2022-09-30T22:05:55.951Z,11.60
2022-09-30T22:09:57.552Z,11.70
2022-09-30T22:13:59.925Z,11.70
2022-09-30T22:18:02.162Z,11.80
2022-09-30T22:22:04.408Z,11.90
2022-09-30T22:26:10.758Z,11.90
2022-09-30T22:30:12.422Z,11.90
2022-09-30T22:34:33.729Z,11.90
2022-09-30T22:38:35.664Z,11.80
2022-09-30T22:42:37.690Z,11.80
2022-09-30T22:46:39.723Z,11.80
2022-09-30T22:50:41.385Z,11.80
2022-09-30T22:54:43.044Z,11.70
2022-09-30T22:58:46.647Z,11.70
2022-09-30T23:02:52.740Z,11.70
2022-09-30T23:06:55.364Z,11.70
2022-09-30T23:10:57.400Z,11.60
2022-09-30T23:14:59.008Z,11.70
2022-09-30T23:19:00.987Z,11.70
2022-09-30T23:23:02.699Z,11.50
2022-09-30T23:27:04.356Z,11.60
2022-09-30T23:31:09.392Z,11.50
2022-09-30T23:35:13.979Z,11.50
2022-09-30T23:39:19.253Z,11.50
2022-09-30T23:43:22.130Z,11.50
2022-09-30T23:47:23.747Z,11.50
2022-09-30T23:51:25.472Z,11.50
2022-09-30T23:55:29.610Z,11.50
2022-09-30T23:59:32.126Z,11.50
